createdAt,value
2019-03-09T00:01:22.662Z,2.20
2019-03-09T00:03:50.392Z,2.20
2019-03-09T00:06:18.491Z,2.20
2019-03-09T00:08:46.903Z,2.30
2019-03-09T00:11:14.691Z,2.40
2019-03-09T00:13:42.422Z,2.10
2019-03-09T00:16:10.099Z,2.30
2019-03-09T00:18:41.311Z,2.20
2019-03-09T00:21:09.011Z,2.60
2019-03-09T00:23:54.527Z,2.70
2019-03-09T00:26:44.640Z,2.90
2019-03-09T00:29:35.378Z,2.73
2019-03-09T00:32:08.481Z,2.70
2019-03-09T00:34:36.515Z,2.97
2019-03-09T00:37:19.499Z,2.70
2019-03-09T00:39:47.265Z,2.50
2019-03-09T00:42:14.893Z,2.73
2019-03-09T00:44:42.585Z,2.90
2019-03-09T00:47:10.504Z,2.70
2019-03-09T00:49:38.221Z,2.87
2019-03-09T00:52:05.822Z,2.57
2019-03-09T00:54:33.519Z,2.23
2019-03-09T00:57:01.377Z,2.53
2019-03-09T00:59:29.025Z,2.27
2019-03-09T01:01:56.675Z,2.27
2019-03-09T01:04:24.337Z,2.43
2019-03-09T01:06:54.037Z,2.53
2019-03-09T01:09:22.823Z,1.90
2019-03-09T01:11:50.520Z,1.80
2019-03-09T01:14:18.339Z,1.80
2019-03-09T01:16:46.234Z,1.80
2019-03-09T01:19:13.937Z,1.77
2019-03-09T01:21:41.641Z,1.90
2019-03-09T01:24:09.333Z,1.90
2019-03-09T01:26:36.983Z,2.00
2019-03-09T01:29:04.705Z,2.17
2019-03-09T01:31:32.708Z,1.90
2019-03-09T01:34:00.334Z,2.27
2019-03-09T01:36:27.951Z,2.30
2019-03-09T01:38:55.594Z,2.17
2019-03-09T01:41:23.198Z,2.30
2019-03-09T01:43:50.859Z,2.30
2019-03-09T01:46:18.806Z,2.33
2019-03-09T01:48:46.474Z,2.27
2019-03-09T01:51:14.128Z,1.90
2019-03-09T01:53:41.834Z,1.97
2019-03-09T01:56:09.531Z,2.00
2019-03-09T01:58:38.238Z,2.13
2019-03-09T02:01:05.899Z,2.20
2019-03-09T02:03:33.608Z,2.17
2019-03-09T02:06:01.288Z,2.00
2019-03-09T02:08:28.951Z,1.97
2019-03-09T02:10:56.621Z,2.17
2019-03-09T02:13:24.323Z,1.70
2019-03-09T02:15:52.022Z,1.90
2019-03-09T02:18:23.958Z,1.80
2019-03-09T02:20:51.597Z,1.87
2019-03-09T02:23:19.249Z,1.90
2019-03-09T02:25:46.851Z,1.80
2019-03-09T02:28:17.654Z,2.00
2019-03-09T02:30:45.260Z,2.13
2019-03-09T02:33:12.866Z,1.90
2019-03-09T02:35:40.453Z,1.80
2019-03-09T02:38:27.759Z,2.17
2019-03-09T02:40:55.437Z,1.80
2019-03-09T02:43:23.117Z,1.70
2019-03-09T02:45:50.707Z,1.80
2019-03-09T02:48:21.474Z,1.90
2019-03-09T02:50:55.440Z,2.10
2019-03-09T02:53:24.449Z,2.03
2019-03-09T02:55:52.053Z,2.00
2019-03-09T02:58:19.666Z,2.00
2019-03-09T03:00:51.425Z,2.10
2019-03-09T03:03:20.289Z,2.00
2019-03-09T03:05:47.862Z,2.50
2019-03-09T03:08:15.452Z,2.30
2019-03-09T03:10:43.095Z,2.00
2019-03-09T03:13:10.621Z,2.20
2019-03-09T03:15:38.255Z,2.30
2019-03-09T03:18:08.131Z,2.30
2019-03-09T03:20:35.801Z,2.30
2019-03-09T03:23:03.484Z,2.33
2019-03-09T03:25:31.077Z,2.73
2019-03-09T03:28:02.309Z,2.83
2019-03-09T03:30:29.894Z,2.53
2019-03-09T03:32:57.897Z,3.00
2019-03-09T03:35:25.462Z,2.80
2019-03-09T03:37:53.084Z,3.20
2019-03-09T03:40:21.350Z,3.20
2019-03-09T03:42:49.056Z,3.30
2019-03-09T03:45:17.872Z,3.40
2019-03-09T03:47:45.552Z,3.37
2019-03-09T03:50:13.158Z,3.00
2019-03-09T03:52:40.960Z,2.90
2019-03-09T03:55:09.052Z,3.57
2019-03-09T03:57:44.093Z,3.77
2019-03-09T04:00:12.008Z,3.00
2019-03-09T04:02:39.690Z,3.40
2019-03-09T04:05:07.499Z,3.37
2019-03-09T04:07:35.635Z,3.30
2019-03-09T04:10:03.797Z,3.37
2019-03-09T04:12:32.535Z,3.60
2019-03-09T04:15:00.414Z,3.37
2019-03-09T04:17:30.761Z,3.70
2019-03-09T04:19:58.486Z,3.20
2019-03-09T04:22:26.200Z,4.03
2019-03-09T04:24:54.112Z,3.47
2019-03-09T04:27:24.017Z,4.07
2019-03-09T04:29:51.879Z,3.67
2019-03-09T04:32:19.765Z,3.80
2019-03-09T04:34:47.561Z,4.23
2019-03-09T04:37:16.323Z,4.17
2019-03-09T04:39:43.924Z,3.70
2019-03-09T04:42:11.529Z,3.90
2019-03-09T04:44:39.200Z,3.80
2019-03-09T04:47:08.951Z,3.87
2019-03-09T04:49:36.572Z,4.00
2019-03-09T04:52:04.260Z,4.10
2019-03-09T04:54:33.047Z,4.00
2019-03-09T04:57:00.710Z,4.07
2019-03-09T04:59:30.083Z,3.83
2019-03-09T05:01:57.665Z,4.37
2019-03-09T05:04:52.201Z,3.60
2019-03-09T05:07:38.066Z,4.20
2019-03-09T05:10:27.074Z,4.10
2019-03-09T05:12:58.640Z,3.83
2019-03-09T05:15:26.324Z,4.17
2019-03-09T05:17:58.207Z,4.13
2019-03-09T05:20:27.714Z,4.27
2019-03-09T05:22:55.374Z,4.43
2019-03-09T05:25:24.013Z,3.97
2019-03-09T05:28:04.176Z,3.80
2019-03-09T05:30:39.080Z,3.77
2019-03-09T05:33:06.837Z,4.30
2019-03-09T05:35:38.464Z,4.90
2019-03-09T05:38:10.483Z,4.60
2019-03-09T05:40:38.278Z,5.13
2019-03-09T05:43:06.251Z,5.00
2019-03-09T05:45:33.942Z,5.13
2019-03-09T05:48:01.585Z,5.40
2019-03-09T05:50:29.206Z,5.67
2019-03-09T05:53:09.590Z,5.47
2019-03-09T05:55:40.282Z,5.60
2019-03-09T05:58:15.532Z,5.70
2019-03-09T06:00:43.621Z,5.93
2019-03-09T06:03:11.569Z,5.60
2019-03-09T06:06:02.589Z,5.40
2019-03-09T06:08:30.312Z,6.07
2019-03-09T06:10:58.007Z,5.27
2019-03-09T06:13:25.655Z,5.03
2019-03-09T06:15:53.354Z,5.37
2019-03-09T06:18:26.246Z,4.80
2019-03-09T06:20:53.872Z,5.00
2019-03-09T06:23:21.562Z,4.40
2019-03-09T06:25:49.273Z,4.57
2019-03-09T06:28:20.297Z,4.60
2019-03-09T06:30:47.936Z,4.67
2019-03-09T06:33:26.241Z,3.97
2019-03-09T06:36:09.246Z,4.27
2019-03-09T06:38:39.835Z,4.30
2019-03-09T06:41:09.374Z,4.43
2019-03-09T06:43:37.012Z,3.47
2019-03-09T06:46:04.825Z,3.87
2019-03-09T06:48:33.607Z,3.70
2019-03-09T06:51:01.324Z,3.70
2019-03-09T06:53:29.048Z,3.60
2019-03-09T06:55:56.721Z,3.93
2019-03-09T06:58:28.475Z,4.20
2019-03-09T07:00:56.343Z,3.77
2019-03-09T07:03:24.058Z,3.87
2019-03-09T07:05:51.735Z,3.87
2019-03-09T07:08:19.372Z,3.73
2019-03-09T07:10:47.061Z,3.73
2019-03-09T07:13:14.981Z,4.03
2019-03-09T07:15:59.493Z,4.30
2019-03-09T07:18:40.456Z,3.20
2019-03-09T07:21:08.459Z,4.00
2019-03-09T07:23:36.197Z,3.60
2019-03-09T07:26:03.885Z,3.17
2019-03-09T07:28:36.113Z,3.60
2019-03-09T07:31:04.449Z,3.40
2019-03-09T07:33:32.092Z,4.17
2019-03-09T07:36:04.065Z,3.70
2019-03-09T07:38:34.199Z,3.20
2019-03-09T07:41:01.963Z,3.33
2019-03-09T07:43:29.636Z,3.40
2019-03-09T07:45:57.215Z,3.40
2019-03-09T07:48:24.840Z,3.50
2019-03-09T07:50:52.656Z,3.73
2019-03-09T07:53:20.456Z,3.73
2019-03-09T07:55:48.254Z,3.10
2019-03-09T07:58:19.522Z,3.50
2019-03-09T08:00:49.011Z,3.70
2019-03-09T08:03:16.730Z,3.37
2019-03-09T08:05:47.913Z,3.30
2019-03-09T08:08:15.729Z,3.50
2019-03-09T08:10:43.356Z,3.10
2019-03-09T08:13:11.672Z,3.33
2019-03-09T08:15:39.369Z,3.27
2019-03-09T08:18:07.090Z,3.23
2019-03-09T08:20:35.183Z,3.47
2019-03-09T08:23:04.204Z,3.20
2019-03-09T08:25:31.916Z,3.60
2019-03-09T08:28:01.751Z,2.83
2019-03-09T08:30:29.432Z,2.67
2019-03-09T08:32:57.862Z,2.77
2019-03-09T08:35:25.540Z,3.50
2019-03-09T08:37:53.238Z,3.00
2019-03-09T08:40:21.226Z,3.17
2019-03-09T08:42:50.167Z,2.93
2019-03-09T08:45:18.473Z,3.27
2019-03-09T08:47:54.536Z,3.53
2019-03-09T08:50:22.208Z,3.03
2019-03-09T08:52:49.933Z,3.53
2019-03-09T08:55:18.193Z,2.80
2019-03-09T08:57:46.133Z,3.40
2019-03-09T09:00:22.159Z,3.37
2019-03-09T09:02:52.396Z,3.50
2019-03-09T09:05:20.020Z,3.57
2019-03-09T09:07:53.868Z,3.40
2019-03-09T09:10:23.259Z,3.93
2019-03-09T09:12:51.046Z,3.97
2019-03-09T09:15:18.747Z,3.37
2019-03-09T09:17:47.062Z,3.53
2019-03-09T09:20:16.218Z,3.60
2019-03-09T09:22:43.838Z,3.63
2019-03-09T09:25:13.834Z,4.20
2019-03-09T09:27:41.636Z,3.57
2019-03-09T09:30:21.732Z,3.80
2019-03-09T09:32:49.401Z,3.43
2019-03-09T09:35:17.611Z,3.63
2019-03-09T09:37:46.343Z,3.73
2019-03-09T09:40:16.226Z,3.80
2019-03-09T09:42:44.089Z,3.57
2019-03-09T09:45:12.136Z,4.00
2019-03-09T09:47:42.725Z,3.83
2019-03-09T09:50:10.744Z,3.80
2019-03-09T09:52:38.739Z,4.10
2019-03-09T09:55:09.206Z,3.93
2019-03-09T09:57:44.524Z,4.50
2019-03-09T10:00:18.126Z,4.23
2019-03-09T10:02:48.132Z,4.60
2019-03-09T10:05:15.902Z,4.50
2019-03-09T10:07:45.650Z,4.33
2019-03-09T10:10:16.894Z,4.70
2019-03-09T10:12:44.605Z,4.90
2019-03-09T10:15:16.501Z,5.00
2019-03-09T10:17:44.155Z,4.23
2019-03-09T10:20:12.477Z,4.00
2019-03-09T10:22:40.135Z,4.30
2019-03-09T10:25:08.123Z,4.37
2019-03-09T10:27:45.387Z,4.87
2019-03-09T10:30:16.279Z,5.07
2019-03-09T10:32:44.264Z,5.00
2019-03-09T10:35:12.047Z,4.77
2019-03-09T10:37:41.905Z,4.30
2019-03-09T10:40:09.770Z,4.90
2019-03-09T10:42:37.733Z,4.17
2019-03-09T10:45:05.932Z,3.93
2019-03-09T10:47:35.278Z,4.53
2019-03-09T10:50:05.365Z,4.30
2019-03-09T10:52:33.466Z,4.27
2019-03-09T10:55:01.586Z,3.97
2019-03-09T10:57:32.213Z,4.83
2019-03-09T10:59:59.951Z,4.70
2019-03-09T11:02:30.730Z,4.63
2019-03-09T11:04:58.517Z,3.93
2019-03-09T11:07:29.682Z,4.83
2019-03-09T11:09:57.621Z,4.70
2019-03-09T11:12:25.369Z,4.50
2019-03-09T11:14:53.307Z,4.50
2019-03-09T11:17:23.641Z,4.77
2019-03-09T11:19:51.713Z,5.30
2019-03-09T11:22:19.373Z,4.73
2019-03-09T11:24:47.601Z,5.10
2019-03-09T11:27:15.771Z,4.70
2019-03-09T11:29:43.575Z,4.57
2019-03-09T11:32:11.321Z,5.23
2019-03-09T11:34:54.058Z,4.80
2019-03-09T11:37:23.114Z,4.63
2019-03-09T11:39:54.111Z,5.10
2019-03-09T11:42:23.203Z,5.17
2019-03-09T11:44:51.895Z,4.73
2019-03-09T11:47:19.997Z,4.90
2019-03-09T11:49:49.848Z,4.73
2019-03-09T11:52:20.408Z,4.47
2019-03-09T11:55:06.682Z,4.83
2019-03-09T11:57:44.430Z,5.20
2019-03-09T12:00:14.913Z,5.30
2019-03-09T12:02:42.685Z,5.53
2019-03-09T12:05:41.778Z,5.13
2019-03-09T12:08:11.803Z,5.60
2019-03-09T12:10:39.766Z,5.40
2019-03-09T12:13:07.531Z,5.37
2019-03-09T12:15:35.165Z,5.67
2019-03-09T12:18:10.365Z,6.33
2019-03-09T12:20:38.289Z,5.27
2019-03-09T12:23:22.123Z,5.97
2019-03-09T12:25:50.397Z,5.57
2019-03-09T12:28:21.063Z,6.53
2019-03-09T12:31:04.000Z,6.90
2019-03-09T12:34:13.354Z,6.77
2019-03-09T12:36:42.711Z,7.13
2019-03-09T12:39:57.728Z,7.53
2019-03-09T12:43:02.569Z,6.70
2019-03-09T12:52:39.694Z,5.83
2019-03-09T12:55:17.926Z,5.90
2019-03-09T12:58:20.765Z,6.90
2019-03-09T13:00:58.640Z,6.40
2019-03-09T13:03:29.674Z,6.23
2019-03-09T13:06:06.726Z,6.37
2019-03-09T13:08:39.622Z,7.13
2019-03-09T13:11:09.496Z,5.97
2019-03-09T13:13:37.216Z,5.57
2019-03-09T13:16:04.897Z,5.43
2019-03-09T13:18:39.386Z,4.57
2019-03-09T13:21:08.525Z,5.23
2019-03-09T13:23:40.225Z,4.80
2019-03-09T13:26:21.114Z,5.17
2019-03-09T13:32:59.417Z,4.03
2019-03-09T13:44:01.984Z,4.77
2019-03-09T13:46:51.845Z,4.70
2019-03-09T13:49:18.259Z,4.20
2019-03-09T13:51:54.690Z,4.40
2019-03-09T13:54:26.909Z,4.20
2019-03-09T13:56:57.620Z,3.77
2019-03-09T13:59:31.908Z,4.47
2019-03-09T14:02:12.942Z,4.13
2019-03-09T14:05:01.613Z,3.90
2019-03-09T14:08:24.760Z,4.60
2019-03-09T14:18:07.186Z,4.00
2019-03-09T14:20:43.975Z,3.60
2019-03-09T14:23:32.782Z,3.93
2019-03-09T14:26:14.348Z,4.23
2019-03-09T14:28:50.655Z,4.20
2019-03-09T14:31:18.352Z,4.00
2019-03-09T14:33:46.352Z,4.43
2019-03-09T14:36:16.750Z,4.83
2019-03-09T14:38:50.462Z,5.00
2019-03-09T14:41:18.940Z,3.57
2019-03-09T14:43:46.589Z,4.33
2019-03-09T14:46:17.461Z,4.87
2019-03-09T14:48:55.812Z,4.33
2019-03-09T14:51:23.358Z,3.43
2019-03-09T14:53:52.561Z,4.83
2019-03-09T14:56:24.692Z,4.67
2019-03-09T14:59:01.917Z,4.53
2019-03-09T15:02:20.534Z,3.77
2019-03-09T15:04:53.378Z,4.37
2019-03-09T15:07:43.362Z,3.93
2019-03-09T15:10:41.174Z,4.30
2019-03-09T15:13:22.769Z,4.10
2019-03-09T15:16:09.474Z,4.50
2019-03-09T15:18:27.658Z,4.87
2019-03-09T15:20:55.256Z,4.83
2019-03-09T15:23:23.190Z,4.37
2019-03-09T15:25:50.829Z,4.70
2019-03-09T15:28:43.854Z,4.83
2019-03-09T15:31:11.433Z,4.17
2019-03-09T15:33:42.612Z,4.50
2019-03-09T15:36:13.658Z,4.67
2019-03-09T15:38:54.810Z,4.97
2019-03-09T15:41:24.163Z,4.77
2019-03-09T15:43:53.726Z,5.37
2019-03-09T15:46:21.397Z,5.10
2019-03-09T15:49:05.664Z,5.20
2019-03-09T15:51:33.539Z,4.80
2019-03-09T15:54:04.908Z,4.53
2019-03-09T15:56:32.633Z,5.27
2019-03-09T16:02:29.691Z,5.13
2019-03-09T16:04:57.357Z,5.23
2019-03-09T16:07:25.274Z,5.20
2019-03-09T16:09:53.034Z,5.20
2019-03-09T16:12:20.685Z,5.33
2019-03-09T16:14:50.729Z,5.23
2019-03-09T16:17:42.762Z,5.67
2019-03-09T16:20:12.769Z,5.23
2019-03-09T16:22:40.389Z,6.37
2019-03-09T16:25:08.393Z,5.40
2019-03-09T16:27:51.245Z,5.60
2019-03-09T16:30:18.832Z,5.80
2019-03-09T16:32:46.459Z,5.57
2019-03-09T16:35:14.043Z,5.07
2019-03-09T16:38:01.125Z,5.07
2019-03-09T16:40:29.404Z,4.90
2019-03-09T16:42:57.130Z,4.80
2019-03-09T16:45:24.821Z,4.33
2019-03-09T16:51:33.029Z,4.33
2019-03-09T16:54:00.659Z,4.40
2019-03-09T16:56:28.437Z,3.97
2019-03-09T17:02:27.841Z,3.90
2019-03-09T17:04:53.951Z,4.33
2019-03-09T17:11:02.628Z,3.63
2019-03-09T17:13:31.577Z,3.47
2019-03-09T17:16:01.044Z,3.40
2019-03-09T17:22:09.364Z,4.00
2019-03-09T17:24:38.989Z,3.83
2019-03-09T17:27:35.514Z,3.57
2019-03-09T17:30:03.671Z,3.80
2019-03-09T17:32:31.288Z,3.83
2019-03-09T17:34:59.925Z,3.77
2019-03-09T17:40:55.821Z,3.37
2019-03-09T17:43:23.477Z,3.50
2019-03-09T17:45:51.222Z,2.93
2019-03-09T17:51:59.576Z,3.53
2019-03-09T17:54:27.212Z,3.40
2019-03-09T17:59:47.980Z,3.77
2019-03-09T18:02:15.651Z,3.20
2019-03-09T18:04:43.301Z,4.03
2019-03-09T18:10:42.997Z,4.00
2019-03-09T18:13:10.718Z,4.30
2019-03-09T18:15:38.318Z,3.43
2019-03-09T18:21:34.400Z,3.77
2019-03-09T18:24:02.040Z,3.80
2019-03-09T18:26:31.604Z,4.70
2019-03-09T18:32:40.152Z,4.37
2019-03-09T18:35:07.794Z,5.27
2019-03-09T18:37:38.513Z,5.00
2019-03-09T18:40:06.400Z,5.17
2019-03-09T18:42:35.261Z,5.70
2019-03-09T18:45:02.975Z,6.63
2019-03-09T18:50:58.874Z,6.27
2019-03-09T18:53:26.558Z,5.83
2019-03-09T18:55:59.318Z,5.83
2019-03-09T19:01:52.058Z,6.47
2019-03-09T19:04:19.778Z,6.67
2019-03-09T19:10:15.496Z,6.67
2019-03-09T19:12:43.130Z,6.67
2019-03-09T19:15:11.269Z,6.60
2019-03-09T19:21:07.226Z,6.30
2019-03-09T19:23:34.851Z,6.23
2019-03-09T19:26:02.548Z,6.27
2019-03-09T19:28:47.293Z,6.50
2019-03-09T19:31:14.879Z,5.77
2019-03-09T19:33:42.497Z,5.73
2019-03-09T19:36:10.350Z,6.83
2019-03-09T19:38:57.526Z,6.47
2019-03-09T19:41:25.170Z,5.77
2019-03-09T19:43:52.770Z,7.07
2019-03-09T19:46:20.707Z,8.20
2019-03-09T19:49:04.843Z,6.30
2019-03-09T19:51:32.431Z,7.50
2019-03-09T19:54:00.068Z,7.00
2019-03-09T19:56:27.776Z,6.53
2019-03-09T20:02:23.707Z,5.87
2019-03-09T20:04:51.367Z,6.87
2019-03-09T20:07:55.882Z,5.97
2019-03-09T20:10:28.849Z,5.57
2019-03-09T20:12:59.292Z,6.10
2019-03-09T20:15:29.951Z,6.13
2019-03-09T20:18:08.708Z,5.87
2019-03-09T20:20:36.296Z,5.43
2019-03-09T20:23:03.892Z,5.57
2019-03-09T20:25:33.069Z,5.10
2019-03-09T20:28:00.685Z,6.70
2019-03-09T20:30:28.667Z,7.10
2019-03-09T20:32:56.202Z,6.53
2019-03-09T20:35:24.270Z,6.03
2019-03-09T20:37:51.854Z,6.93
2019-03-09T20:40:19.463Z,6.30
2019-03-09T20:42:47.071Z,6.47
2019-03-09T20:45:14.982Z,6.03
2019-03-09T20:47:46.359Z,6.23
2019-03-09T20:50:14.493Z,5.87
2019-03-09T20:52:42.245Z,6.00
2019-03-09T20:55:09.943Z,6.23
2019-03-09T20:57:37.773Z,5.97
2019-03-09T21:00:07.675Z,6.03
2019-03-09T21:02:35.251Z,6.07
2019-03-09T21:05:05.348Z,5.97
2019-03-09T21:07:32.928Z,5.80
2019-03-09T21:10:00.553Z,6.43
2019-03-09T21:12:28.141Z,5.67
2019-03-09T21:14:55.759Z,5.37
2019-03-09T21:17:26.757Z,6.67
2019-03-09T21:19:54.350Z,6.30
2019-03-09T21:22:21.876Z,6.60
2019-03-09T21:24:49.453Z,5.67
2019-03-09T21:27:20.687Z,5.30
2019-03-09T21:29:48.286Z,5.60
2019-03-09T21:32:15.931Z,5.07
2019-03-09T21:34:43.522Z,5.10
2019-03-09T21:37:11.061Z,5.73
2019-03-09T21:39:38.627Z,4.90
2019-03-09T21:42:06.409Z,4.77
2019-03-09T21:44:33.972Z,4.90
2019-03-09T21:47:01.493Z,4.73
2019-03-09T21:49:29.077Z,5.50
2019-03-09T21:51:56.731Z,5.37
2019-03-09T21:54:24.292Z,5.50
2019-03-09T21:56:51.838Z,5.47
2019-03-09T21:59:19.390Z,5.43
2019-03-09T22:01:47.103Z,5.10
2019-03-09T22:04:14.652Z,6.20
2019-03-09T22:06:42.222Z,4.60
2019-03-09T22:09:09.796Z,5.50
2019-03-09T22:11:37.322Z,5.57
2019-03-09T22:14:04.887Z,5.13
2019-03-09T22:16:32.514Z,5.57
2019-03-09T22:19:00.320Z,6.00
2019-03-09T22:21:27.875Z,6.07
2019-03-09T22:23:55.504Z,6.70
2019-03-09T22:26:23.063Z,6.43
2019-03-09T22:28:54.642Z,5.27
2019-03-09T22:31:25.500Z,6.90
2019-03-09T22:33:53.016Z,5.03
2019-03-09T22:36:20.576Z,5.07
2019-03-09T22:38:51.284Z,4.60
2019-03-09T22:41:18.946Z,5.20
2019-03-09T22:43:46.498Z,5.07
2019-03-09T22:46:14.067Z,5.90
2019-03-09T22:48:48.960Z,5.30
2019-03-09T22:51:17.718Z,4.57
2019-03-09T22:53:45.272Z,4.30
2019-03-09T22:56:12.883Z,5.30
2019-03-09T22:58:44.901Z,4.33
2019-03-09T23:01:12.463Z,4.73
2019-03-09T23:03:40.180Z,5.23
2019-03-09T23:06:07.628Z,5.00
2019-03-09T23:08:39.435Z,4.93
2019-03-09T23:11:07.004Z,5.00
2019-03-09T23:13:34.522Z,5.23
2019-03-09T23:16:02.084Z,5.43
2019-03-09T23:18:31.320Z,4.63
2019-03-09T23:20:58.841Z,4.83
2019-03-09T23:23:26.437Z,4.60
2019-03-09T23:25:53.969Z,5.23
2019-03-09T23:28:21.541Z,4.90
2019-03-09T23:30:49.110Z,4.73
2019-03-09T23:33:16.636Z,4.53
2019-03-09T23:35:44.174Z,4.90
2019-03-09T23:38:13.748Z,5.33
2019-03-09T23:40:41.265Z,4.50
2019-03-09T23:43:08.804Z,5.13
2019-03-09T23:45:36.570Z,5.07
2019-03-09T23:48:07.226Z,5.30
2019-03-09T23:50:34.738Z,4.33
2019-03-09T23:53:02.247Z,4.93
2019-03-09T23:55:29.759Z,5.30
2019-03-09T23:57:57.363Z,5.17
